Accueil
METAR-TAF:

METAR-TAF

Aéroports :

Londres Biggin Hill, Angleterre

Aérodrome de Londres Biggin Hill

latitude: 51-19N, longitude: 000-02E, altitude: 183 m

Observation

Le bulletin a été fait il y a 41 minutes, à 18:50 UTC
Vent 9 kt de sud
Température 2°C
Humidité 93%
Pression 1009 hPa
Visibilité 10 km ou plus
pas de nuages en-dessous de 1500 mètres et pas de cumulonimbus.

METAR: EGKB 121850Z 19009KT CAVOK 02/01 Q1009 R88/7201//

Heure: 19:31 (19:31 UTC)

Prévision

Le bulletin a été fait il y a 2 heures et 13 minutes, à 17:18 UTC
Prévision valable du 12 à 18 UTC au 12 à 23 UTC
Vent 6 kt de sud-ouest
Visibilité 10 km ou plus
pas de nuages en-dessous de 1500 mètres et pas de cumulonimbus.
Probabilité 30%
du 12 à 19 UTC au 12 à 23 UTC
Visibilité: 6000 m
Nuages fragmentés à une hauteur de 1000 ft
faibles averses de pluie

TAF: EGKB 121718Z 1218/1223 22006KT CAVOK PROB30 1219/1223 6000 -SHRA BKN010

Observations et prévisions météorologiques de plus de 4000 aéroports (messages METAR et TAF).

Les stations disponibles sont représentées par des disques jaunes et rouges sur la carte.

Passer la souris dessus pour voir le nom de la station.

Cliquer dessus pour voir les observations et prévisions météorologiques.

Pour changer de carte: cliquez sur les boutons verts avec une croix noire pour zoomer, sur le bouton vert avec un tiret pour effectuer un zoom arrière, ou sur les flèches vertes pour les cartes adjacentes.


METAR-TAF: